This is the latest recevied weather packets stored in our database for station/object VK5TRM-13. If no packets are shown the sender has not sent any weather packets the latest 10 day(s).
| Time | Temp. | Humidity | Pressure | Rain* | Wind** | Luminosity | Snow |
|---|---|---|---|---|---|---|---|
| 1777811405 | 15.56° C | 61% | 1014.1 hPa | 0 mm | - | - | - |
| 1777810505 | 15.56° C | 61% | 1014.1 hPa | 0 mm | - | - | - |
| 1777809605 | 15.56° C | 61% | 1014 hPa | 0 mm | - | - | - |
| 1777808705 | 15.56° C | 61% | 1014 hPa | 0 mm | - | - | - |
| 1777807805 | 15° C | 66% | 1013.7 hPa | 0 mm | - | - | - |
| 1777806905 | 15° C | 66% | 1013.7 hPa | 0 mm | - | - | - |
| 1777806004 | 15.56° C | 63% | 1013.5 hPa | 0 mm | - | - | - |
| 1777805104 | 15.56° C | 63% | 1013.5 hPa | 0 mm | - | - | - |
| 1777804204 | 16.67° C | 53% | 1013.7 hPa | 0 mm | - | - | - |
| 1777803305 | 16.67° C | 53% | 1013.7 hPa | 0 mm | - | - | - |
| 1777802405 | 16.11° C | 56% | 1013.5 hPa | 0 mm | - | - | - |
| 1777801505 | 16.11° C | 56% | 1013.5 hPa | 0 mm | - | - | - |
| 1777800605 | 16.11° C | 55% | 1013.1 hPa | 0 mm | - | - | - |
| 1777799705 | 16.11° C | 55% | 1013.1 hPa | 0 mm | - | - | - |
| 1777798805 | 16.67° C | 53% | 1013.1 hPa | 0 mm | - | - | - |
| 1777797907 | 16.67° C | 53% | 1013.1 hPa | 0 mm | - | - | - |
| 1777797005 | 17.22° C | 50% | 1012.7 hPa | 0 mm | - | - | - |
| 1777796105 | 17.22° C | 50% | 1012.7 hPa | 0 mm | - | - | - |
| 1777795204 | 18.33° C | 46% | 1012.4 hPa | 0 mm | - | - | - |
| 1777794305 | 18.33° C | 46% | 1012.4 hPa | 0 mm | - | - | - |
| 1777793405 | 18.89° C | 44% | 1012.4 hPa | 0 mm | - | - | - |
| 1777792506 | 18.89° C | 44% | 1012.4 hPa | 0 mm | - | - | - |
| 1777791604 | 19.44° C | 43% | 1012.3 hPa | 0 mm | - | - | - |
| 1777790705 | 19.44° C | 43% | 1012.3 hPa | 0 mm | - | - | - |
| 1777789805 | 19.44° C | 41% | 1012.3 hPa | 0 mm | - | - | - |
* Rain since midnight (hover to see other rain measurements)
** Current wind speed in m/s (hover to see current wind gust speed)